Time,TemperatureF,DewpointF,PressureIn,WindDirection,WindDirectionDegrees,WindSpeedMPH,WindSpeedGustMPH,Humidity,HourlyPrecipIn,Conditions,Clouds,dailyrainin,SoftwareType,DateUTC
2013-02-02 00:00:00,53.6,42.9,30.18,North,0,0.0,4.0,67,0.00,,,-99.99,WeatherLink 5.7,2013-02-02 05:00:00,
2013-02-02 00:15:00,53.2,42.5,30.17,North,-999,0.0,0.0,67,0.00,,,-99.99,WeatherLink 5.7,2013-02-02 05:15:00,
2013-02-02 00:30:00,52.6,42.3,30.18,North,-999,0.0,0.0,68,0.00,,,-99.99,WeatherLink 5.7,2013-02-02 05:30:00,
2013-02-02 00:45:00,51.9,41.7,30.18,North,-999,0.0,0.0,68,0.00,,,-99.99,WeatherLink 5.7,2013-02-02 05:45:00,
2013-02-02 01:00:00,51.1,41.7,30.18,North,-999,0.0,0.0,70,0.00,,,-99.99,WeatherLink 5.7,2013-02-02 06:00:00,
2013-02-02 01:15:00,50.7,41.3,30.19,North,-999,0.0,0.0,70,0.00,,,-99.99,WeatherLink 5.7,2013-02-02 06:15:00,
2013-02-02 01:30:00,50.7,41.3,30.18,North,-999,0.0,0.0,70,0.00,,,-99.99,WeatherLink 5.7,2013-02-02 06:30:00,
2013-02-02 01:45:00,50.4,40.2,30.18,North,-999,0.0,0.0,68,0.00,,,-99.99,WeatherLink 5.7,2013-02-02 06:45:00,
2013-02-02 02:00:00,50.0,39.8,30.17,North,-999,0.0,0.0,68,0.00,,,-99.99,WeatherLink 5.7,2013-02-02 07:00:00,
2013-02-02 02:15:00,49.6,39.1,30.17,North,0,0.0,4.0,67,0.00,,,-99.99,WeatherLink 5.7,2013-02-02 07:15:00,
2013-02-02 02:30:00,49.3,38.4,30.17,North,0,0.0,2.0,66,0.00,,,-99.99,WeatherLink 5.7,2013-02-02 07:30:00,
2013-02-02 02:45:00,48.9,38.0,30.17,North,-999,0.0,0.0,66,0.00,,,-99.99,WeatherLink 5.7,2013-02-02 07:45:00,
2013-02-02 03:00:00,48.6,37.7,30.17,North,-999,0.0,0.0,66,0.00,,,-99.99,WeatherLink 5.7,2013-02-02 08:00:00,
2013-02-02 03:15:00,48.1,37.3,30.17,North,-999,0.0,0.0,66,0.00,,,-99.99,WeatherLink 5.7,2013-02-02 08:15:00,
2013-02-02 03:30:00,47.5,37.1,30.17,North,-999,0.0,0.0,67,0.00,,,-99.99,WeatherLink 5.7,2013-02-02 08:30:00,
2013-02-02 03:45:00,46.9,36.5,30.18,North,-999,0.0,0.0,67,0.00,,,-99.99,WeatherLink 5.7,2013-02-02 08:45:00,
2013-02-02 04:00:00,46.4,36.4,30.18,North,-999,0.0,0.0,68,0.00,,,-99.99,WeatherLink 5.7,2013-02-02 09:00:00,
2013-02-02 04:15:00,46.1,36.1,30.18,North,-999,0.0,0.0,68,0.00,,,-99.99,WeatherLink 5.7,2013-02-02 09:15:00,
2013-02-02 04:30:00,45.8,35.8,30.18,North,-999,0.0,0.0,68,0.00,,,-99.99,WeatherLink 5.7,2013-02-02 09:30:00,
2013-02-02 04:45:00,45.5,35.5,30.18,North,-999,0.0,0.0,68,0.00,,,-99.99,WeatherLink 5.7,2013-02-02 09:45:00,
2013-02-02 05:00:00,45.1,35.2,30.18,North,-999,0.0,0.0,68,0.00,,,-99.99,WeatherLink 5.7,2013-02-02 10:00:00,
2013-02-02 05:15:00,44.7,34.8,30.17,North,-999,0.0,0.0,68,0.00,,,-99.99,WeatherLink 5.7,2013-02-02 10:15:00,
2013-02-02 05:30:00,44.3,34.8,30.18,North,-999,0.0,0.0,69,0.00,,,-99.99,WeatherLink 5.7,2013-02-02 10:30:00,
2013-02-02 05:45:00,43.9,34.4,30.18,North,-999,0.0,0.0,69,0.00,,,-99.99,WeatherLink 5.7,2013-02-02 10:45:00,
2013-02-02 06:00:00,43.6,34.1,30.18,North,-999,0.0,0.0,69,0.00,,,-99.99,WeatherLink 5.7,2013-02-02 11:00:00,
2013-02-02 06:15:00,43.4,33.9,30.19,North,-999,0.0,0.0,69,0.00,,,-99.99,WeatherLink 5.7,2013-02-02 11:15:00,
2013-02-02 06:30:00,43.2,34.1,30.19,North,-999,0.0,0.0,70,0.00,,,-99.99,WeatherLink 5.7,2013-02-02 11:30:00,
2013-02-02 06:45:00,43.1,34.0,30.19,North,-999,0.0,0.0,70,0.00,,,-99.99,WeatherLink 5.7,2013-02-02 11:45:00,
2013-02-02 07:00:00,42.9,33.8,30.19,North,-999,0.0,0.0,70,0.00,,,-99.99,WeatherLink 5.7,2013-02-02 12:00:00,
2013-02-02 07:15:00,42.8,33.7,30.20,North,-999,0.0,0.0,70,0.00,,,-99.99,WeatherLink 5.7,2013-02-02 12:15:00,
2013-02-02 07:30:00,42.6,33.9,30.20,North,-999,0.0,0.0,71,0.00,,,-99.99,WeatherLink 5.7,2013-02-02 12:30:00,
2013-02-02 07:45:00,42.9,34.1,30.20,North,-999,0.0,0.0,71,0.00,,,-99.99,WeatherLink 5.7,2013-02-02 12:45:00,
2013-02-02 08:00:00,43.6,34.8,30.21,North,0,0.0,2.0,71,0.00,,,-99.99,WeatherLink 5.7,2013-02-02 13:00:00,
2013-02-02 08:15:00,44.9,35.7,30.21,North,0,0.0,4.0,70,0.00,,,-99.99,WeatherLink 5.7,2013-02-02 13:15:00,
2013-02-02 08:30:00,46.6,37.0,30.21,North,0,0.0,4.0,69,0.00,,,-99.99,WeatherLink 5.7,2013-02-02 13:30:00,
2013-02-02 08:45:00,48.3,37.8,30.21,North,0,1.0,7.0,67,0.00,,,-99.99,WeatherLink 5.7,2013-02-02 13:45:00,
2013-02-02 09:00:00,50.3,39.0,30.21,North,0,0.0,6.0,65,0.00,,,-99.99,WeatherLink 5.7,2013-02-02 14:00:00,
2013-02-02 09:15:00,52.5,40.3,30.20,North,0,0.0,4.0,63,0.00,,,-99.99,WeatherLink 5.7,2013-02-02 14:15:00,
2013-02-02 09:30:00,54.8,41.2,30.20,North,0,1.0,7.0,60,0.00,,,-99.99,WeatherLink 5.7,2013-02-02 14:30:00,
2013-02-02 09:45:00,56.4,41.8,30.20,North,0,1.0,9.0,58,0.00,,,-99.99,WeatherLink 5.7,2013-02-02 14:45:00,
2013-02-02 10:00:00,57.9,42.3,30.19,North,0,0.0,4.0,56,0.00,,,-99.99,WeatherLink 5.7,2013-02-02 15:00:00,
2013-02-02 10:15:00,59.1,42.5,30.19,North,0,0.0,3.0,54,0.00,,,-99.99,WeatherLink 5.7,2013-02-02 15:15:00,
2013-02-02 10:30:00,60.0,42.3,30.19,North,0,0.0,5.0,52,0.00,,,-99.99,WeatherLink 5.7,2013-02-02 15:30:00,
2013-02-02 10:45:00,61.0,42.2,30.18,North,0,0.0,4.0,50,0.00,,,-99.99,WeatherLink 5.7,2013-02-02 15:45:00,
2013-02-02 11:00:00,61.8,41.3,30.18,North,0,0.0,1.0,47,0.00,,,-99.99,WeatherLink 5.7,2013-02-02 16:00:00,
2013-02-02 11:15:00,62.3,40.7,30.17,North,0,0.0,5.0,45,0.00,,,-99.99,WeatherLink 5.7,2013-02-02 16:15:00,
2013-02-02 11:30:00,62.8,40.0,30.17,North,0,0.0,6.0,43,0.00,,,-99.99,WeatherLink 5.7,2013-02-02 16:30:00,
2013-02-02 11:45:00,63.2,38.5,30.16,North,0,0.0,1.0,40,0.00,,,-99.99,WeatherLink 5.7,2013-02-02 16:45:00,
2013-02-02 12:00:00,63.5,38.1,30.16,North,0,0.0,3.0,39,0.00,,,-99.99,WeatherLink 5.7,2013-02-02 17:00:00,
2013-02-02 12:15:00,64.0,36.5,30.14,North,-999,0.0,0.0,36,0.00,,,-99.99,WeatherLink 5.7,2013-02-02 17:15:00,
2013-02-02 12:30:00,64.4,36.8,30.14,North,-999,0.0,0.0,36,0.00,,,-99.99,WeatherLink 5.7,2013-02-02 17:30:00,
2013-02-02 12:45:00,64.8,35.0,30.13,North,0,0.0,1.0,33,0.00,,,-99.99,WeatherLink 5.7,2013-02-02 17:45:00,
2013-02-02 13:00:00,65.3,39.7,30.12,North,0,0.0,1.0,39,0.00,,,-99.99,WeatherLink 5.7,2013-02-02 18:00:00,
2013-02-02 13:15:00,66.1,41.7,30.11,North,0,1.0,7.0,41,0.00,,,-99.99,WeatherLink 5.7,2013-02-02 18:15:00,
2013-02-02 13:30:00,66.2,42.4,30.11,North,0,2.0,9.0,42,0.00,,,-99.99,WeatherLink 5.7,2013-02-02 18:30:00,
2013-02-02 13:45:00,65.8,42.1,30.10,North,0,1.0,6.0,42,0.00,,,-99.99,WeatherLink 5.7,2013-02-02 18:45:00,
2013-02-02 14:00:00,65.2,41.5,30.10,North,0,1.0,6.0,42,0.00,,,-99.99,WeatherLink 5.7,2013-02-02 19:00:00,
2013-02-02 14:15:00,65.0,42.5,30.09,North,0,1.0,6.0,44,0.00,,,-99.99,WeatherLink 5.7,2013-02-02 19:15:00,
2013-02-02 14:30:00,65.0,43.1,30.08,North,0,0.0,7.0,45,0.00,,,-99.99,WeatherLink 5.7,2013-02-02 19:30:00,
2013-02-02 14:45:00,65.0,43.1,30.08,North,0,1.0,9.0,45,0.00,,,-99.99,WeatherLink 5.7,2013-02-02 19:45:00,
2013-02-02 15:00:00,64.8,44.1,30.08,North,0,0.0,6.0,47,0.00,,,-99.99,WeatherLink 5.7,2013-02-02 20:00:00,
2013-02-02 15:15:00,64.6,43.9,30.08,North,0,0.0,5.0,47,0.00,,,-99.99,WeatherLink 5.7,2013-02-02 20:15:00,
2013-02-02 15:30:00,64.5,43.8,30.08,North,0,0.0,6.0,47,0.00,,,-99.99,WeatherLink 5.7,2013-02-02 20:30:00,
2013-02-02 15:45:00,64.3,44.2,30.07,North,0,1.0,6.0,48,0.00,,,-99.99,WeatherLink 5.7,2013-02-02 20:45:00,
2013-02-02 16:00:00,64.0,43.9,30.07,North,0,1.0,7.0,48,0.00,,,-99.99,WeatherLink 5.7,2013-02-02 21:00:00,
2013-02-02 16:15:00,63.6,44.1,30.07,North,0,1.0,9.0,49,0.00,,,-99.99,WeatherLink 5.7,2013-02-02 21:15:00,
2013-02-02 16:30:00,63.2,44.2,30.07,North,0,1.0,7.0,50,0.00,,,-99.99,WeatherLink 5.7,2013-02-02 21:30:00,
2013-02-02 16:45:00,62.8,44.9,30.07,North,0,1.0,11.0,52,0.00,,,-99.99,WeatherLink 5.7,2013-02-02 21:45:00,
2013-02-02 17:00:00,62.3,44.9,30.08,North,0,3.0,12.0,53,0.00,,,-99.99,WeatherLink 5.7,2013-02-02 22:00:00,
2013-02-02 17:15:00,61.7,44.9,30.07,North,0,3.0,11.0,54,0.00,,,-99.99,WeatherLink 5.7,2013-02-02 22:15:00,
2013-02-02 17:30:00,61.0,44.2,30.08,North,0,1.0,7.0,54,0.00,,,-99.99,WeatherLink 5.7,2013-02-02 22:30:00,
2013-02-02 17:45:00,60.3,43.6,30.08,North,0,1.0,8.0,54,0.00,,,-99.99,WeatherLink 5.7,2013-02-02 22:45:00,
2013-02-02 18:00:00,59.7,43.5,30.08,North,0,0.0,7.0,55,0.00,,,-99.99,WeatherLink 5.7,2013-02-02 23:00:00,
2013-02-02 18:15:00,59.0,42.8,30.07,North,-999,0.0,0.0,55,0.00,,,-99.99,WeatherLink 5.7,2013-02-02 23:15:00,
2013-02-02 18:30:00,58.1,42.5,30.08,North,-999,0.0,0.0,56,0.00,,,-99.99,WeatherLink 5.7,2013-02-02 23:30:00,
2013-02-02 18:45:00,57.2,42.5,30.08,North,0,0.0,4.0,58,0.00,,,-99.99,WeatherLink 5.7,2013-02-02 23:45:00,
2013-02-02 19:00:00,56.6,42.4,30.08,North,-999,0.0,0.0,59,0.00,,,-99.99,WeatherLink 5.7,2013-02-03 00:00:00,
2013-02-02 19:15:00,56.3,42.1,30.08,North,0,0.0,4.0,59,0.00,,,-99.99,WeatherLink 5.7,2013-02-03 00:15:00,
2013-02-02 19:30:00,56.0,42.3,30.08,North,0,0.0,4.0,60,0.00,,,-99.99,WeatherLink 5.7,2013-02-03 00:30:00,
2013-02-02 19:45:00,56.0,42.3,30.08,North,-999,0.0,0.0,60,0.00,,,-99.99,WeatherLink 5.7,2013-02-03 00:45:00,
2013-02-02 20:00:00,55.8,42.5,30.08,North,-999,0.0,0.0,61,0.00,,,-99.99,WeatherLink 5.7,2013-02-03 01:00:00,
2013-02-02 20:15:00,55.3,42.1,30.08,North,-999,0.0,0.0,61,0.00,,,-99.99,WeatherLink 5.7,2013-02-03 01:15:00,
2013-02-02 20:30:00,54.8,42.0,30.08,North,-999,0.0,0.0,62,0.00,,,-99.99,WeatherLink 5.7,2013-02-03 01:30:00,
2013-02-02 20:45:00,54.4,42.1,30.08,North,-999,0.0,0.0,63,0.00,,,-99.99,WeatherLink 5.7,2013-02-03 01:45:00,
2013-02-02 21:00:00,54.1,41.4,30.08,North,-999,0.0,0.0,62,0.00,,,-99.99,WeatherLink 5.7,2013-02-03 02:00:00,
2013-02-02 21:15:00,53.6,41.7,30.08,North,-999,0.0,0.0,64,0.00,,,-99.99,WeatherLink 5.7,2013-02-03 02:15:00,
2013-02-02 21:30:00,53.2,41.3,30.07,North,-999,0.0,0.0,64,0.00,,,-99.99,WeatherLink 5.7,2013-02-03 02:30:00,
2013-02-02 21:45:00,52.7,41.3,30.07,North,-999,0.0,0.0,65,0.00,,,-99.99,WeatherLink 5.7,2013-02-03 02:45:00,
2013-02-02 22:00:00,52.2,40.8,30.07,North,-999,0.0,0.0,65,0.00,,,-99.99,WeatherLink 5.7,2013-02-03 03:00:00,
2013-02-02 22:15:00,51.7,40.7,30.07,North,-999,0.0,0.0,66,0.00,,,-99.99,WeatherLink 5.7,2013-02-03 03:15:00,
2013-02-02 22:30:00,51.0,39.6,30.07,North,-999,0.0,0.0,65,0.00,,,-99.99,WeatherLink 5.7,2013-02-03 03:30:00,
2013-02-02 22:45:00,50.3,40.1,30.07,North,-999,0.0,0.0,68,0.00,,,-99.99,WeatherLink 5.7,2013-02-03 03:45:00,
2013-02-02 23:00:00,50.0,40.2,30.07,North,0,0.0,4.0,69,0.00,,,-99.99,WeatherLink 5.7,2013-02-03 04:00:00,
2013-02-02 23:15:00,50.9,41.1,30.07,North,0,0.0,5.0,69,0.00,,,-99.99,WeatherLink 5.7,2013-02-03 04:15:00,
2013-02-02 23:30:00,52.0,41.8,30.07,North,0,1.0,9.0,68,0.00,,,-99.99,WeatherLink 5.7,2013-02-03 04:30:00,
2013-02-02 23:45:00,53.1,42.4,30.07,North,0,1.0,6.0,67,0.00,,,-99.99,WeatherLink 5.7,2013-02-03 04:45:00,